West Palm Beach, FL (33406)

3:56 PM EDT on April 29, 2017 (GMT -0400)
LCS Police HQ / EOC | | Change Station

Elev 30 ft 26.65 °N, 80.08 °W | Updated 4 seconds ago

Mostly Cloudy
Mostly Cloudy
-54.5 °F
Feels Like -79 °F
N
7.3
Wind Variable Wind from South
Gusts 8.9 mph

Today
High -- | Low -- °F
--% Chance of Precip.
Yesterday
High -- | Low -- °F
Precip. -- in
Pressure 30.13 in
Visibility 10.0 miles
Clouds Scattered Clouds 2000 ft
Mostly Cloudy 3000 ft
Mostly Cloudy 25000 ft
Windchill -79 °F
Dew Point -60.0 °F
Humidity 66%
Rainfall in
Snow Depth Not available.
6:43 AM 7:51 PM
Waxing Crescent, 16% visible
METAR KPBI 291953Z 12018KT 10SM SCT020 BKN030 BKN250 28/21 A3013 RMK AO2 SLP202 T02830206
Pressure 30.13 in
Visibility 10.0 miles
Clouds Scattered Clouds 2000 ft
Mostly Cloudy 3000 ft
Mostly Cloudy 25000 ft
Windchill -79 °F
Dew Point -60.0 °F
Humidity 66%
Rainfall in
Snow Depth Not available.
6:43 AM 7:51 PM
Waxing Crescent, 16% visible
METAR KPBI 291953Z 12018KT 10SM SCT020 BKN030 BKN250 28/21 A3013 RMK AO2 SLP202 T02830206

Get Severe Weather Alerts

Thanks for signing up!

Be on the lookout for a verification email in your inbox.

You'll start receiving the daily forecast at 8 AM.

×

10-Day Weather Forecast

Almanac

Astronomy

Apr. 29, 2017 Rise Set
Actual Time
Civil Twilight
Nautical Twilight
Astronomical Twilight
Moon
Length of Visible Light
Length of Day
Tomorrow will be .
, % of the Moon is Illuminated

Today's Extremes

State Highs State Lows

Community

WunderPhotos

WunderBlog® & News

Nearby

Air Quality

  Air Quality AQ Index Pollutant
Not available.

Snow Depth

Station Depth Elevation

Earthquake Activity

City Distance Mag. Time & Date
Minimum magnitude displayed is 2.5.

Coastal Water Temperatures

Place Temperature

Stations

Nearby Weather Stations

Station Location Temp. Windchill Dew Point Humidity Wind Precip. Elev Updated Type
                   

Watches & Warnings

There are currently no watches in effect.